METAR Data

Data at: 1833 UTC 21 Nov 2018

METAR for:K1P1 (Plymouth Muni, NH, US)
Text:K1P1 211815Z AUTO 00000KT 2 1/2SM -SN OVC024 M01/M02 A2975 RMK AO2 T10151025
Temperature: -1.5°C ( 29°F)
Dewpoint: -2.5°C ( 28°F) [RH = 93%]
Pressure (altimeter):29.75 inches Hg (1007.5 mb)
Winds:calm
Visibility: 2.50 sm ( 4.02 km)
Ceiling:2400 feet AGL
Clouds: overcast cloud deck at 2400 feet AGL
Weather:-SN (light snow)
QC Flag:automated observation with no human augmentation